Airfield :
LOGIN :

Register | Disclaimer

   EN    FR    IT 

 










Legend :    VFR   Marginal VFR   IFR   Intensive IFR   Very Intensive IFR
Visi :
Ceiling :
>= 8 km
>= 3000ft
5 to 8 km
1000 to 3000 ft
1500m to 5 km
500 to 1000 ft
800 to 1500m
200 to 500 ft
< 800m
< 200 ft
Symbols :   Thunderstorms  Fog  Heavy snow  Heavy precipitations  Wind > 20 kt
SIGMETs :     Misc.  Thunderstorms  Icing  Turbulence  Mountain Waves  Volcanic Ashes







- Airport Elevation : 74 ft
- IATA code : LRH
- Download approach charts


LFBH - La Rochelle Ile de Ré

CURRENT METAR :
  • 241430Z AUTO 03011KT 350V050 CAVOK 16/07 Q1027 NOSIG

EXPIRED METARs :
  • 241400Z AUTO 01010KT 340V050 9999 FEW040 16/07 Q1027 NOSIG
  • 241330Z AUTO 01011KT 330V040 9999 FEW037 16/07 Q1027 NOSIG
  • 241300Z AUTO 01011KT 350V050 9999 FEW036 16/07 Q1027 NOSIG
  • 241230Z AUTO 36012KT 330V030 9999 FEW032 16/09 Q1027 NOSIG
  • 241200Z AUTO 03009KT 350V050 CAVOK 15/09 Q1027 NOSIG

TAF TAF LFBH
Valid from the 24 at 12:00 until the 25 at 12:00 UTC


241100Z 2412/2512 04010KT CAVOK
ATIS : +33 5 46 00 13 92
No reported NOTAMs for that airfield.



MET'MAP, your aeronautical weather chart ! - Copyright ORBIFLY December 2007 - Disclaimer

ORBIFLY MET'MAP TEAM :

Programming & Development : Alexandra Zaïnal
Concept & Development : Baudouin d'Aumeries
Co-Development & Prog : Marc-Olivier Méhu
Technical & hardware support : Manuel Goepfert

Contact : metmap@orbifly.com




SOURCES & CREDITS :

   NOAA